Time,TemperatureF,DewpointF,PressureIn,WindDirection,WindDirectionDegrees,WindSpeedMPH,WindSpeedGustMPH,Humidity,HourlyPrecipIn,Conditions,Clouds,dailyrainin,SolarRadiationWatts/m^2,SoftwareType,DateUTC
2013-02-10 07:46:00,2.2,-1.0,30.38,NW,312,12.7,0.0,86,0.00,CLR,,0.00,23.0,WeatherDisplay:10.37,2013-02-10 12:46:00,
2013-02-10 07:47:00,2.2,-1.0,30.38,NW,312,12.7,0.0,86,0.00,CLR,,0.00,23.0,WeatherDisplay:10.37,2013-02-10 12:47:00,
2013-02-10 07:52:00,2.2,-1.0,30.38,NW,312,2.3,2.3,86,0.00,CLR,,0.00,25.0,WeatherDisplay:10.37,2013-02-10 12:52:00,
2013-02-10 07:57:00,2.2,-1.0,30.39,NW,312,3.5,3.5,86,0.00,CLR,,0.00,35.0,WeatherDisplay:10.37,2013-02-10 12:57:00,
2013-02-10 08:02:00,2.3,-0.9,30.39,NW,312,3.5,3.5,86,0.00,OVC,,0.00,28.0,WeatherDisplay:10.37,2013-02-10 13:02:00,
2013-02-10 08:07:00,2.4,-0.8,30.39,NW,312,0.0,0.0,86,0.00,OVC,,0.00,58.0,WeatherDisplay:10.37,2013-02-10 13:07:00,
2013-02-10 08:12:00,2.5,-0.7,30.39,NW,312,1.0,1.0,86,0.00,OVC,,0.00,62.0,WeatherDisplay:10.37,2013-02-10 13:12:00,
2013-02-10 08:17:00,2.8,-0.2,30.39,NW,312,2.3,2.3,87,0.00,OVC,,0.00,81.0,WeatherDisplay:10.37,2013-02-10 13:17:00,
2013-02-10 08:22:00,2.9,-0.1,30.39,NW,312,2.3,2.3,87,0.00,OVC,,0.00,54.0,WeatherDisplay:10.37,2013-02-10 13:22:00,
2013-02-10 08:27:00,3.3,0.3,30.40,NW,312,3.0,3.0,87,0.00,OVC,,0.00,151.0,WeatherDisplay:10.37,2013-02-10 13:27:00,
2013-02-10 08:32:00,3.9,0.9,30.40,NW,312,1.1,1.1,87,0.00,OVC,,0.00,130.0,WeatherDisplay:10.37,2013-02-10 13:32:00,
2013-02-10 08:37:00,4.6,1.6,30.40,NW,312,1.0,0.0,87,0.00,OVC,,0.00,125.0,WeatherDisplay:10.37,2013-02-10 13:37:00,
2013-02-10 08:42:00,5.3,2.3,30.40,NW,315,3.5,3.5,87,0.00,OVC,,0.00,185.0,WeatherDisplay:10.37,2013-02-10 13:42:00,
2013-02-10 08:47:00,6.0,3.0,30.40,NW,315,3.5,3.5,87,0.00,OVC,,0.00,176.0,WeatherDisplay:10.37,2013-02-10 13:47:00,
2013-02-10 08:52:00,6.6,3.6,30.41,NW,315,0.0,0.0,87,0.00,OVC,,0.00,236.0,WeatherDisplay:10.37,2013-02-10 13:52:00,
2013-02-10 08:57:00,7.3,4.2,30.41,NW,316,4.6,4.6,87,0.00,OVC,,0.00,264.0,WeatherDisplay:10.37,2013-02-10 13:57:00,
2013-02-10 09:02:00,7.8,4.5,30.41,NW,316,2.3,2.3,86,0.00,OVC,,0.00,262.0,WeatherDisplay:10.37,2013-02-10 14:02:00,
2013-02-10 09:07:00,8.3,5.0,30.41,North,9,2.3,2.3,86,0.00,OVC,,0.00,271.0,WeatherDisplay:10.37,2013-02-10 14:07:00,
2013-02-10 09:12:00,8.8,5.2,30.42,North,5,4.6,4.6,85,0.00,OVC,,0.00,211.0,WeatherDisplay:10.37,2013-02-10 14:12:00,
2013-02-10 09:17:00,9.3,5.7,30.42,North,5,2.3,2.3,85,0.00,OVC,,0.00,100.0,WeatherDisplay:10.37,2013-02-10 14:17:00,
2013-02-10 09:22:00,9.9,6.3,30.42,North,9,3.5,3.5,85,0.00,OVC,,0.00,107.0,WeatherDisplay:10.37,2013-02-10 14:22:00,
2013-02-10 09:27:00,10.3,6.7,30.42,North,11,4.0,4.0,85,0.00,OVC,,0.00,141.0,WeatherDisplay:10.37,2013-02-10 14:27:00,
2013-02-10 09:32:00,10.6,6.7,30.42,North,5,3.5,3.5,84,0.00,OVC,,0.00,63.0,WeatherDisplay:10.37,2013-02-10 14:32:00,
2013-02-10 09:37:00,10.8,6.9,30.41,North,11,3.5,3.5,84,0.00,OVC,,0.00,53.0,WeatherDisplay:10.37,2013-02-10 14:37:00,
2013-02-10 09:42:00,10.9,6.8,30.42,North,11,2.3,2.3,83,0.00,OVC,,0.00,53.0,WeatherDisplay:10.37,2013-02-10 14:42:00,
2013-02-10 09:47:00,11.0,6.8,30.42,North,11,2.3,2.3,83,0.00,OVC,,0.00,79.0,WeatherDisplay:10.37,2013-02-10 14:47:00,
2013-02-10 09:52:00,11.2,7.0,30.42,North,11,3.5,3.5,83,0.00,OVC,,0.00,47.0,WeatherDisplay:10.37,2013-02-10 14:52:00,
2013-02-10 09:57:00,11.4,7.2,30.42,North,9,2.0,2.0,83,0.00,OVC,,0.00,58.0,WeatherDisplay:10.37,2013-02-10 14:57:00,
2013-02-10 10:02:00,11.8,7.4,30.42,North,5,3.5,3.5,82,0.00,OVC,,0.00,121.0,WeatherDisplay:10.37,2013-02-10 15:02:00,
2013-02-10 10:07:00,12.1,7.7,30.42,North,5,5.0,5.0,82,0.00,OVC,,0.00,244.0,WeatherDisplay:10.37,2013-02-10 15:07:00,
2013-02-10 10:12:00,12.3,7.9,30.42,North,5,4.6,4.6,82,0.00,OVC,,0.00,185.0,WeatherDisplay:10.37,2013-02-10 15:12:00,
2013-02-10 10:17:00,12.7,8.2,30.42,North,5,0.0,0.3,82,0.00,OVC,,0.00,102.0,WeatherDisplay:10.37,2013-02-10 15:17:00,
2013-02-10 10:22:00,13.2,8.7,30.42,NNW,336,7.0,7.0,82,0.00,OVC,,0.00,489.0,WeatherDisplay:10.37,2013-02-10 15:22:00,
2013-02-10 10:27:00,13.7,9.2,30.42,NNW,336,0.0,0.0,82,0.00,OVC,,0.00,338.0,WeatherDisplay:10.37,2013-02-10 15:27:00,
2013-02-10 22:40:00,12.5,6.9,30.31,NNW,338,0.0,0.0,78,0.00,CLR,,0.00,0.0,WeatherDisplay:10.37,2013-02-11 03:40:00,